createdAt,value
2019-04-10T06:52:30.921Z,1004.13
2019-04-10T06:53:31.094Z,1004.13
2019-04-10T06:54:31.026Z,1004.14
2019-04-10T06:55:30.842Z,1004.15
2019-04-10T06:56:31.257Z,1004.16
2019-04-10T06:57:30.786Z,1004.13
2019-04-10T06:58:31.796Z,1004.16
2019-04-10T06:59:30.773Z,1004.15
2019-04-10T07:00:30.847Z,1004.16
2019-04-10T07:01:40.466Z,1004.18
2019-04-10T07:02:32.572Z,1004.14
2019-04-10T07:03:47.975Z,1004.17
2019-04-10T07:04:42.870Z,1004.18
2019-04-10T07:05:37.970Z,1004.16
2019-04-10T07:06:44.806Z,1004.14
2019-04-10T07:07:42.354Z,1004.17
2019-04-10T07:08:31.808Z,1004.14
2019-04-10T07:09:31.695Z,1004.21
2019-04-10T07:10:40.819Z,1004.24
2019-04-10T07:11:32.271Z,1004.26
2019-04-10T07:12:33.633Z,1004.28
2019-04-10T07:13:30.417Z,1004.29
2019-04-10T07:14:30.393Z,1004.29
2019-04-10T07:15:30.556Z,1004.31
2019-04-10T07:16:32.588Z,1004.34
2019-04-10T07:17:30.328Z,1004.35
2019-04-10T07:18:30.460Z,1004.36
2019-04-10T07:19:30.419Z,1004.37
2019-04-10T07:20:30.265Z,1004.36
2019-04-10T07:21:32.827Z,1004.43
2019-04-10T07:22:31.126Z,1004.39
2019-04-10T07:23:31.991Z,1004.38
2019-04-10T07:24:34.517Z,1004.41
2019-04-10T07:25:30.172Z,1004.40
2019-04-10T07:26:38.116Z,1004.41
2019-04-10T07:27:33.551Z,1004.40
2019-04-10T07:28:30.097Z,1004.39
2019-04-10T07:29:30.874Z,1004.44
2019-04-10T07:30:30.074Z,1004.40
2019-04-10T07:31:34.101Z,1004.42
2019-04-10T07:32:30.033Z,1004.45
2019-04-10T07:33:30.913Z,1004.47
2019-04-10T07:34:30.115Z,1004.47
2019-04-10T07:35:33.756Z,1004.47
2019-04-10T07:36:30.719Z,1004.52
2019-04-10T07:37:29.915Z,1004.55
2019-04-10T07:38:30.811Z,1004.59
2019-04-10T07:39:32.515Z,1004.58
2019-04-10T07:40:33.869Z,1004.55
2019-04-10T07:41:29.848Z,1004.56
2019-04-10T07:42:35.261Z,1004.57
2019-04-10T07:43:30.625Z,1004.60
2019-04-10T07:44:29.772Z,1004.54
2019-04-10T07:45:29.754Z,1004.60
2019-04-10T07:46:31.114Z,1004.58
2019-04-10T07:47:29.715Z,1004.61
2019-04-10T07:48:29.709Z,1004.63
2019-04-10T07:49:31.237Z,1004.63
2019-04-10T07:50:30.252Z,1004.61
2019-04-10T07:51:29.853Z,1004.59
2019-04-10T07:52:29.653Z,1004.57
2019-04-10T07:53:29.597Z,1004.62
2019-04-10T07:54:30.782Z,1004.66
2019-04-10T07:55:29.631Z,1004.63
2019-04-10T07:56:29.540Z,1004.67
2019-04-10T07:57:30.702Z,1004.70
2019-04-10T07:58:29.502Z,1004.68
2019-04-10T07:59:29.488Z,1004.71
2019-04-10T08:00:29.475Z,1004.68
2019-04-10T08:01:29.447Z,1004.72
2019-04-10T08:02:29.694Z,1004.73
2019-04-10T08:03:29.412Z,1004.71
2019-04-10T08:04:29.390Z,1004.71
2019-04-10T08:05:29.616Z,1004.70
2019-04-10T08:06:29.348Z,1004.78
2019-04-10T08:07:32.881Z,1004.73
2019-04-10T08:08:29.938Z,1004.78
2019-04-10T08:09:29.300Z,1004.79
2019-04-10T08:10:29.275Z,1004.77
2019-04-10T08:11:29.649Z,1004.82
2019-04-10T08:12:39.451Z,1004.78
2019-04-10T08:13:29.221Z,1004.81
2019-04-10T08:19:39.091Z,1004.81
2019-04-10T08:20:38.334Z,1004.80
2019-04-10T08:21:38.313Z,1004.80
2019-04-10T08:22:39.319Z,1004.84
2019-04-10T08:23:38.292Z,1004.84
2019-04-10T08:24:38.546Z,1004.84
2019-04-10T08:25:38.756Z,1004.85
2019-04-10T08:26:38.794Z,1004.85
2019-04-10T08:27:38.549Z,1004.87
2019-04-10T08:33:23.973Z,1004.91
2019-04-10T08:34:23.879Z,1004.90
2019-04-10T08:35:23.825Z,1004.94
2019-04-10T08:36:23.808Z,1004.93
2019-04-10T08:37:24.169Z,1004.96
2019-04-10T08:38:24.031Z,1004.93
2019-04-10T08:39:33.944Z,1004.91
2019-04-10T08:40:23.727Z,1004.93
2019-04-10T08:46:58.138Z,1004.96
2019-04-10T08:47:57.289Z,1004.97
2019-04-10T08:48:57.780Z,1005.02
2019-04-10T08:49:57.146Z,1004.98
2019-04-10T08:50:56.869Z,1005.00
2019-04-10T08:51:57.737Z,1005.01
2019-04-10T08:52:57.823Z,1005.01
2019-04-10T08:53:56.918Z,1005.00
2019-04-10T08:54:57.495Z,1004.99
2019-04-10T08:55:56.845Z,1005.00
2019-04-10T09:01:01.992Z,1005.04
2019-04-10T09:02:02.061Z,1005.04
2019-04-10T09:03:02.418Z,1005.04
2019-04-10T09:04:01.931Z,1005.02
2019-04-10T09:05:01.903Z,1004.96
2019-04-10T09:06:02.910Z,1004.98
2019-04-10T09:07:03.842Z,1004.99
2019-04-10T09:08:02.472Z,1005.02
2019-04-10T09:09:01.831Z,1004.99
2019-04-10T09:10:01.987Z,1004.98
2019-04-10T09:11:02.876Z,1004.98
2019-04-10T09:12:01.894Z,1004.99
2019-04-10T09:13:01.759Z,1005.04
2019-04-10T09:14:01.742Z,1004.97
2019-04-10T09:15:01.733Z,1004.99
2019-04-10T09:16:02.536Z,1004.94
2019-04-10T09:17:02.746Z,1004.97
2019-04-10T09:18:01.941Z,1004.93
2019-04-10T09:19:01.657Z,1004.95
2019-04-10T09:20:02.646Z,1004.94
2019-04-10T09:21:02.693Z,1004.99
2019-04-10T09:22:01.721Z,1004.99
2019-04-10T09:23:26.300Z,1004.95
2019-04-10T09:24:02.592Z,1004.94
2019-04-10T09:25:02.725Z,1004.92
2019-04-10T09:26:01.855Z,1004.92
2019-04-10T09:27:02.529Z,1004.90
2019-04-10T09:28:02.267Z,1004.92
2019-04-10T09:29:02.455Z,1004.90
2019-04-10T09:30:02.500Z,1004.92
2019-04-10T09:31:01.790Z,1004.94
2019-04-10T09:32:02.183Z,1004.90
2019-04-10T09:33:02.960Z,1004.91
2019-04-10T09:34:01.402Z,1004.88
2019-04-10T09:35:02.501Z,1004.88
2019-04-10T09:36:01.381Z,1004.90
2019-04-10T09:37:01.856Z,1004.88
2019-04-10T09:38:02.141Z,1004.85
2019-04-10T09:39:01.321Z,1004.88
2019-04-10T09:40:01.306Z,1004.87
2019-04-10T09:41:01.540Z,1004.89
2019-04-10T09:42:01.359Z,1004.89
2019-04-10T09:47:09.932Z,1004.85
2019-04-10T09:48:10.637Z,1004.91
2019-04-10T09:49:09.831Z,1004.92
2019-04-10T09:50:09.812Z,1004.89
2019-04-10T09:51:09.847Z,1004.89
2019-04-10T09:52:10.311Z,1004.96
2019-04-10T09:53:10.712Z,1004.95
2019-04-10T09:54:09.927Z,1004.88
2019-04-10T09:55:09.726Z,1004.90
2019-04-10T09:56:09.707Z,1004.88
2019-04-10T09:57:09.693Z,1004.89
2019-04-10T09:58:09.689Z,1004.87
2019-04-10T09:59:09.713Z,1004.88
2019-04-10T10:00:10.558Z,1004.83
2019-04-10T10:01:10.729Z,1004.83
2019-04-10T10:02:09.623Z,1004.85
2019-04-10T10:03:09.811Z,1004.90
2019-04-10T10:04:09.575Z,1004.85
2019-04-10T10:05:10.500Z,1004.87
2019-04-10T10:06:09.545Z,1004.84
2019-04-10T10:07:10.325Z,1004.85
2019-04-10T10:08:10.541Z,1004.83
2019-04-10T10:09:09.498Z,1004.83
2019-04-10T10:10:10.612Z,1004.81
2019-04-10T10:11:09.617Z,1004.75
2019-04-10T10:12:09.619Z,1004.81
2019-04-10T10:13:09.649Z,1004.76
2019-04-10T10:14:10.392Z,1004.81
2019-04-10T10:15:09.604Z,1004.79
2019-04-10T10:16:10.476Z,1004.82
2019-04-10T10:17:10.567Z,1004.79
2019-04-10T10:18:09.384Z,1004.81
2019-04-10T10:19:10.033Z,1004.87
2019-04-10T10:20:09.319Z,1004.82
2019-04-10T10:21:10.261Z,1004.84
2019-04-10T10:22:09.400Z,1004.84
2019-04-10T10:23:09.600Z,1004.83
2019-04-10T10:24:09.256Z,1004.87
2019-04-10T10:25:09.236Z,1004.83
2019-04-10T10:26:09.988Z,1004.85
2019-04-10T10:27:09.477Z,1004.85
2019-04-10T10:28:09.207Z,1004.87
2019-04-10T10:29:09.300Z,1004.88
2019-04-10T10:30:09.474Z,1004.86
2019-04-10T10:31:09.139Z,1004.86
2019-04-10T10:32:09.123Z,1004.87
2019-04-10T10:33:09.839Z,1004.87
2019-04-10T10:34:10.173Z,1004.90
2019-04-10T10:35:09.382Z,1004.88
2019-04-10T10:36:09.060Z,1004.88
2019-04-10T10:37:09.044Z,1004.90
2019-04-10T10:38:09.030Z,1004.90
2019-04-10T10:39:12.690Z,1004.91
2019-04-10T10:40:10.073Z,1004.90
2019-04-10T10:41:08.980Z,1004.90
2019-04-10T10:42:09.588Z,1004.89
2019-04-10T10:43:09.922Z,1004.83
2019-04-10T10:44:09.023Z,1004.86
2019-04-10T10:45:08.913Z,1004.85
2019-04-10T10:46:09.268Z,1004.86
2019-04-10T10:47:08.883Z,1004.86
2019-04-10T10:48:09.129Z,1004.86
2019-04-10T10:49:08.851Z,1004.88
2019-04-10T10:50:08.848Z,1004.89
2019-04-10T10:51:08.854Z,1004.94
2019-04-10T10:52:09.069Z,1004.88
2019-04-10T10:53:08.786Z,1004.93
2019-04-10T10:54:08.770Z,1004.87
2019-04-10T10:55:09.744Z,1004.89
2019-04-10T10:56:09.636Z,1004.86
2019-04-10T10:57:09.019Z,1004.90
2019-04-10T10:58:08.706Z,1004.88
2019-04-10T10:59:09.253Z,1004.85
2019-04-10T11:00:11.536Z,1004.86
2019-04-10T11:01:08.658Z,1004.85
2019-04-10T11:02:08.652Z,1004.83
2019-04-10T11:03:09.799Z,1004.84
2019-04-10T11:04:08.899Z,1004.78
2019-04-10T11:05:08.856Z,1004.82
2019-04-10T11:06:08.812Z,1004.78
2019-04-10T11:07:08.691Z,1004.77
2019-04-10T11:08:08.544Z,1004.80
2019-04-10T11:09:08.530Z,1004.79
2019-04-10T11:10:08.708Z,1004.78
2019-04-10T11:11:08.738Z,1004.76
2019-04-10T11:12:09.529Z,1004.80
2019-04-10T11:13:08.912Z,1004.77
2019-04-10T11:14:08.446Z,1004.79
2019-04-10T11:15:08.446Z,1004.82
2019-04-10T11:16:09.210Z,1004.83
2019-04-10T11:17:09.335Z,1004.77
2019-04-10T11:18:08.477Z,1004.81
2019-04-10T11:19:08.364Z,1004.79
2019-04-10T11:20:08.347Z,1004.81
2019-04-10T11:21:11.553Z,1004.82
2019-04-10T11:22:09.428Z,1004.84
2019-04-10T11:23:09.415Z,1004.85
2019-04-10T11:24:09.209Z,1004.87
2019-04-10T11:25:08.267Z,1004.84
2019-04-10T11:26:08.596Z,1004.90
2019-04-10T11:27:09.905Z,1004.88
2019-04-10T11:28:08.217Z,1004.89
2019-04-10T11:29:08.198Z,1004.88
2019-04-10T11:30:08.492Z,1004.86
2019-04-10T11:31:09.171Z,1004.88
2019-04-10T11:32:09.182Z,1004.94
2019-04-10T11:33:08.541Z,1004.88
2019-04-10T11:34:09.968Z,1004.89
2019-04-10T11:35:08.105Z,1004.89
2019-04-10T11:36:08.101Z,1004.89
2019-04-10T11:37:23.441Z,1004.91
2019-04-10T11:38:08.614Z,1004.89
2019-04-10T11:40:08.768Z,1004.87
2019-04-10T11:41:08.046Z,1004.87
2019-04-10T11:42:09.944Z,1004.88
2019-04-10T11:43:07.973Z,1004.85
2019-04-10T11:44:09.457Z,1004.87
2019-04-10T11:45:08.167Z,1004.86
2019-04-10T11:46:08.066Z,1004.88
2019-04-10T11:47:09.549Z,1004.87
2019-04-10T11:48:07.958Z,1004.86
2019-04-10T11:49:10.262Z,1004.89
2019-04-10T11:50:13.081Z,1004.89
2019-04-10T11:51:09.501Z,1004.93
2019-04-10T11:52:07.845Z,1004.93
2019-04-10T11:53:10.279Z,1004.97
2019-04-10T11:54:12.149Z,1004.95
2019-04-10T11:55:13.748Z,1004.97
2019-04-10T11:56:08.760Z,1004.93
2019-04-10T11:57:07.815Z,1004.95
2019-04-10T11:58:08.584Z,1004.90
2019-04-10T11:59:11.271Z,1004.93
2019-04-10T12:00:12.226Z,1004.93
2019-04-10T12:01:08.664Z,1004.93
2019-04-10T12:02:08.845Z,1004.88
2019-04-10T12:03:09.793Z,1004.91
2019-04-10T12:04:09.790Z,1004.94
2019-04-10T12:05:12.022Z,1004.94
2019-04-10T12:06:07.728Z,1004.92
2019-04-10T12:07:09.751Z,1004.92
2019-04-10T12:08:32.014Z,1004.93
2019-04-10T12:11:10.996Z,1004.97
2019-04-10T12:12:07.523Z,1004.98
2019-04-10T12:13:08.204Z,1004.93
2019-04-10T12:14:07.652Z,1004.96
2019-04-10T12:15:08.027Z,1004.98
2019-04-10T12:16:07.459Z,1004.96
2019-04-10T12:17:07.549Z,1004.94
2019-04-10T12:18:08.560Z,1004.99
2019-04-10T12:19:07.412Z,1004.98
2019-04-10T12:20:07.399Z,1004.99
2019-04-10T12:21:07.429Z,1004.98
2019-04-10T12:22:07.556Z,1005.01
2019-04-10T12:23:08.367Z,1004.97
2019-04-10T12:24:07.445Z,1004.98
2019-04-10T12:25:07.323Z,1004.99
2019-04-10T12:26:07.502Z,1005.01
2019-04-10T12:27:07.294Z,1004.99
2019-04-10T12:28:07.529Z,1004.98
2019-04-10T12:29:07.263Z,1004.99
2019-04-10T12:30:07.246Z,1004.96
2019-04-10T12:31:07.922Z,1004.95
2019-04-10T12:32:08.223Z,1004.95
2019-04-10T12:33:07.595Z,1004.99
2019-04-10T12:34:07.188Z,1004.98
2019-04-10T12:35:07.173Z,1005.01
2019-04-10T12:36:07.158Z,1004.98
2019-04-10T12:37:07.143Z,1004.98
2019-04-10T12:38:10.267Z,1004.98
2019-04-10T12:39:07.897Z,1004.99
2019-04-10T12:40:07.700Z,1005.01
2019-04-10T12:41:07.085Z,1005.05
2019-04-10T12:42:07.946Z,1005.00
2019-04-10T12:43:07.068Z,1005.02
2019-04-10T12:44:07.472Z,1005.03
2019-04-10T12:45:08.121Z,1005.03
2019-04-10T12:46:07.011Z,1005.00
2019-04-10T12:47:07.970Z,1004.97
2019-04-10T12:48:07.187Z,1004.97
2019-04-10T12:49:07.494Z,1005.01
2019-04-10T12:50:08.097Z,1005.00
2019-04-10T12:51:07.717Z,1005.04
2019-04-10T12:52:07.857Z,1005.04
2019-04-10T12:53:07.397Z,1005.03
2019-04-10T12:54:07.822Z,1005.03
2019-04-10T12:55:08.021Z,1005.08
2019-04-10T12:56:08.080Z,1005.05
2019-04-10T12:57:06.859Z,1005.09
2019-04-10T12:58:12.690Z,1005.09
2019-04-10T12:59:06.970Z,1005.07
2019-04-10T13:00:06.817Z,1005.08
2019-04-10T13:01:06.833Z,1005.14
2019-04-10T13:02:06.996Z,1005.13
2019-04-10T13:03:06.874Z,1005.09
2019-04-10T13:04:07.537Z,1005.13
2019-04-10T13:05:07.208Z,1005.12
2019-04-10T13:06:07.511Z,1005.05
2019-04-10T13:07:07.456Z,1005.04
2019-04-10T13:08:19.133Z,1005.06
2019-04-10T13:09:11.514Z,1005.01
2019-04-10T13:10:06.686Z,1005.04
2019-04-10T13:11:07.763Z,1004.97
2019-04-10T13:12:07.019Z,1004.99
2019-04-10T13:13:06.645Z,1004.98
2019-04-10T13:14:06.645Z,1005.00
2019-04-10T13:15:07.463Z,1004.97
2019-04-10T13:16:07.739Z,1004.98
2019-04-10T13:17:06.767Z,1004.98
2019-04-10T13:18:06.578Z,1004.92
2019-04-10T13:19:06.973Z,1004.92
2019-04-10T13:20:07.236Z,1004.94
2019-04-10T13:21:06.537Z,1004.92
2019-04-10T13:22:07.568Z,1004.90
2019-04-10T13:23:06.710Z,1004.94
2019-04-10T13:24:06.516Z,1004.91
2019-04-10T13:25:06.485Z,1004.91
2019-04-10T13:26:09.053Z,1004.91
2019-04-10T13:27:06.458Z,1004.91
2019-04-10T13:28:08.231Z,1004.88
2019-04-10T13:29:06.433Z,1004.92
2019-04-10T13:30:07.012Z,1004.94
2019-04-10T13:31:06.405Z,1004.91
2019-04-10T13:32:07.558Z,1004.93
2019-04-10T13:33:06.651Z,1004.90
2019-04-10T13:34:06.369Z,1004.89
2019-04-10T13:35:06.365Z,1004.90
2019-04-10T13:36:07.179Z,1004.89
2019-04-10T13:37:06.329Z,1004.89
2019-04-10T13:38:06.733Z,1004.89
2019-04-10T13:39:06.695Z,1004.88
2019-04-10T13:40:06.300Z,1004.91
2019-04-10T13:41:06.271Z,1004.91
2019-04-10T13:42:07.267Z,1004.94
2019-04-10T13:43:06.444Z,1004.93
2019-04-10T13:44:06.605Z,1004.86
2019-04-10T13:45:06.905Z,1004.92
2019-04-10T13:46:06.771Z,1004.91
2019-04-10T13:47:07.103Z,1004.93
2019-04-10T13:48:06.197Z,1004.93
2019-04-10T13:49:06.164Z,1004.92
2019-04-10T13:50:06.365Z,1004.95
2019-04-10T13:51:06.162Z,1004.90
2019-04-10T13:52:06.125Z,1004.85
2019-04-10T13:53:06.111Z,1004.89
2019-04-10T13:54:06.282Z,1004.88
2019-04-10T13:55:07.380Z,1004.86
2019-04-10T13:56:06.596Z,1004.84
2019-04-10T13:57:06.058Z,1004.86
2019-04-10T13:58:06.647Z,1004.88
2019-04-10T13:59:06.814Z,1004.86
2019-04-10T14:00:06.039Z,1004.84
2019-04-10T14:01:07.113Z,1004.90
2019-04-10T14:02:06.797Z,1004.86
2019-04-10T14:03:06.026Z,1004.86
2019-04-10T14:04:06.988Z,1004.83
2019-04-10T14:05:05.956Z,1004.83
2019-04-10T14:06:05.945Z,1004.83
2019-04-10T14:07:05.943Z,1004.89
2019-04-10T14:08:06.160Z,1004.85
2019-04-10T14:09:22.593Z,1004.84
2019-04-10T14:10:06.990Z,1004.86
2019-04-10T14:11:05.881Z,1004.84
2019-04-10T14:12:05.999Z,1004.86
2019-04-10T14:13:05.852Z,1004.88
2019-04-10T14:14:06.525Z,1004.84
2019-04-10T14:15:05.830Z,1004.84
2019-04-10T14:16:06.490Z,1004.87
2019-04-10T14:17:06.896Z,1004.84
2019-04-10T14:18:06.095Z,1004.85
2019-04-10T14:19:06.377Z,1004.87
2019-04-10T14:20:06.813Z,1004.82
2019-04-10T14:21:11.227Z,1004.81
2019-04-10T14:22:05.732Z,1004.83
2019-04-10T14:23:06.358Z,1004.84
2019-04-10T14:24:05.734Z,1004.86
2019-04-10T14:25:05.690Z,1004.89
2019-04-10T14:26:06.498Z,1004.82
2019-04-10T14:27:05.851Z,1004.86
2019-04-10T14:28:06.893Z,1004.88
2019-04-10T14:29:05.637Z,1004.87
2019-04-10T14:30:05.626Z,1004.88
2019-04-10T14:31:05.614Z,1004.89
2019-04-10T14:32:05.605Z,1004.92
2019-04-10T14:33:05.600Z,1004.92
2019-04-10T14:34:06.566Z,1004.89
2019-04-10T14:35:05.560Z,1004.91
2019-04-10T14:36:05.652Z,1004.90
2019-04-10T14:37:05.535Z,1004.91
2019-04-10T14:38:06.553Z,1004.94
2019-04-10T14:39:11.916Z,1004.93
2019-04-10T14:40:06.607Z,1004.89
2019-04-10T14:41:05.481Z,1004.92
2019-04-10T14:42:06.507Z,1004.92
2019-04-10T14:43:05.453Z,1004.97
2019-04-10T14:44:06.172Z,1005.00
2019-04-10T14:45:05.660Z,1004.99
2019-04-10T14:46:05.417Z,1005.02
2019-04-10T14:47:06.406Z,1005.03
2019-04-10T14:48:05.774Z,1005.01
2019-04-10T14:49:05.389Z,1005.05
2019-04-10T14:50:05.402Z,1004.99
2019-04-10T14:51:06.121Z,1005.03
2019-04-10T14:52:05.360Z,1005.08
2019-04-10T14:53:05.566Z,1005.08
2019-04-10T14:54:05.885Z,1005.08
2019-04-10T14:55:05.296Z,1005.09
2019-04-10T14:56:06.806Z,1005.13
2019-04-10T14:57:06.417Z,1005.09
2019-04-10T14:58:05.553Z,1005.10
2019-04-10T14:59:05.340Z,1005.16
2019-04-10T15:00:06.367Z,1005.12
2019-04-10T15:01:08.139Z,1005.14
2019-04-10T15:02:06.297Z,1005.09
2019-04-10T15:03:06.370Z,1005.11
2019-04-10T15:04:05.183Z,1005.13
2019-04-10T15:05:05.759Z,1005.14
2019-04-10T15:06:05.159Z,1005.16
2019-04-10T15:07:06.016Z,1005.12
2019-04-10T15:08:05.137Z,1005.11
2019-04-10T15:09:06.166Z,1005.14
2019-04-10T15:10:05.129Z,1005.20
2019-04-10T15:11:05.103Z,1005.28
2019-04-10T15:12:05.088Z,1005.28
2019-04-10T15:13:10.058Z,1005.25
2019-04-10T15:14:05.604Z,1005.32
2019-04-10T15:15:05.080Z,1005.32
2019-04-10T15:16:05.079Z,1005.18
2019-04-10T15:17:06.633Z,1005.14
2019-04-10T15:18:05.026Z,1005.16
2019-04-10T15:19:05.014Z,1005.12
2019-04-10T15:20:05.002Z,1005.14
2019-04-10T15:21:05.007Z,1005.16
2019-04-10T15:22:04.980Z,1005.19
2019-04-10T15:23:05.056Z,1005.12
2019-04-10T15:24:04.960Z,1005.12
2019-04-10T15:25:05.409Z,1005.09
2019-04-10T15:26:05.962Z,1005.07
2019-04-10T15:27:04.927Z,1005.08
2019-04-10T15:28:04.915Z,1005.10
2019-04-10T15:29:05.854Z,1005.08
2019-04-10T15:30:04.892Z,1005.12
2019-04-10T15:31:04.893Z,1005.10
2019-04-10T15:32:04.868Z,1005.07
2019-04-10T15:33:04.856Z,1005.09
2019-04-10T15:34:05.719Z,1005.09
2019-04-10T15:35:04.831Z,1005.13
2019-04-10T15:36:04.838Z,1005.19
2019-04-10T15:37:04.809Z,1005.18
2019-04-10T15:38:04.793Z,1005.16
2019-04-10T15:39:04.788Z,1005.18
2019-04-10T15:40:11.440Z,1005.17
2019-04-10T15:41:04.753Z,1005.20
2019-04-10T15:42:05.786Z,1005.19
2019-04-10T15:43:04.979Z,1005.24
2019-04-10T15:44:05.707Z,1005.15
2019-04-10T15:45:05.053Z,1005.17
2019-04-10T15:46:04.693Z,1005.13
2019-04-10T15:47:13.662Z,1005.14
2019-04-10T15:48:04.909Z,1005.11
2019-04-10T15:49:04.796Z,1005.10
2019-04-10T15:50:04.637Z,1005.19
2019-04-10T15:51:05.611Z,1005.22
2019-04-10T15:52:05.745Z,1005.22
2019-04-10T15:53:04.593Z,1005.15
2019-04-10T15:54:05.568Z,1005.21
2019-04-10T15:55:05.584Z,1005.21
2019-04-10T15:56:05.505Z,1005.24
2019-04-10T15:57:04.729Z,1005.28
2019-04-10T15:58:04.530Z,1005.33
2019-04-10T15:59:04.511Z,1005.35
2019-04-10T16:00:05.109Z,1005.32
2019-04-10T16:01:05.551Z,1005.38
2019-04-10T16:02:05.619Z,1005.38
2019-04-10T16:03:05.002Z,1005.55
2019-04-10T16:04:05.252Z,1005.51
2019-04-10T16:05:04.826Z,1005.43
2019-04-10T16:06:04.421Z,1005.44
2019-04-10T16:07:04.408Z,1005.43
2019-04-10T16:08:04.409Z,1005.43
2019-04-10T16:09:04.972Z,1005.36
2019-04-10T16:10:04.971Z,1005.39
2019-04-10T16:11:05.529Z,1005.40
2019-04-10T16:12:04.346Z,1005.35
2019-04-10T16:13:04.353Z,1005.32
2019-04-10T16:14:17.028Z,1005.36
2019-04-10T16:15:04.703Z,1005.37
2019-04-10T16:16:05.098Z,1005.37
2019-04-10T16:17:04.701Z,1005.39
2019-04-10T16:18:05.231Z,1005.34
2019-04-10T16:19:04.305Z,1005.40
2019-04-10T16:20:04.255Z,1005.37
2019-04-10T16:21:04.241Z,1005.35
2019-04-10T16:22:04.230Z,1005.37
2019-04-10T16:23:04.240Z,1005.33
2019-04-10T16:24:04.612Z,1005.36
2019-04-10T16:25:05.274Z,1005.33
2019-04-10T16:26:04.925Z,1005.34
2019-04-10T16:27:04.164Z,1005.30
2019-04-10T16:28:04.220Z,1005.32
2019-04-10T16:29:04.153Z,1005.30
2019-04-10T16:30:04.153Z,1005.31
2019-04-10T16:31:04.114Z,1005.30
2019-04-10T16:32:04.253Z,1005.33
2019-04-10T16:33:04.939Z,1005.31
2019-04-10T16:34:05.138Z,1005.35
2019-04-10T16:35:05.129Z,1005.34
2019-04-10T16:36:05.168Z,1005.36
2019-04-10T16:37:04.085Z,1005.36
2019-04-10T16:38:05.150Z,1005.42
2019-04-10T16:39:04.930Z,1005.37
2019-04-10T16:40:06.848Z,1005.39
2019-04-10T16:41:04.730Z,1005.37
2019-04-10T16:42:03.962Z,1005.45
2019-04-10T16:43:04.928Z,1005.43
2019-04-10T16:44:04.635Z,1005.51
2019-04-10T16:45:03.951Z,1005.55
2019-04-10T16:46:04.900Z,1005.53
2019-04-10T16:47:03.891Z,1005.58
2019-04-10T16:48:03.882Z,1005.66
2019-04-10T16:49:04.408Z,1005.66
2019-04-10T16:50:03.862Z,1005.69
2019-04-10T16:51:03.834Z,1005.66
2019-04-10T16:52:04.933Z,1005.71
2019-04-10T16:53:03.805Z,1005.64
2019-04-10T16:54:04.288Z,1005.80
2019-04-10T16:55:03.790Z,1005.90
2019-04-10T16:56:03.765Z,1005.89
2019-04-10T16:57:04.487Z,1005.83
2019-04-10T16:58:03.733Z,1005.81
2019-04-10T16:59:04.615Z,1005.74
2019-04-10T17:00:04.734Z,1005.66
2019-04-10T17:01:04.344Z,1005.70
2019-04-10T17:02:03.838Z,1005.76
2019-04-10T17:03:03.683Z,1005.63
2019-04-10T17:04:04.771Z,1005.65
2019-04-10T17:05:03.901Z,1005.68
2019-04-10T17:06:03.989Z,1005.69
2019-04-10T17:07:03.605Z,1005.66
2019-04-10T17:08:03.738Z,1005.69
2019-04-10T17:09:04.708Z,1005.77
2019-04-10T17:10:11.555Z,1005.72
2019-04-10T17:11:03.604Z,1005.69
2019-04-10T17:12:03.978Z,1005.71
2019-04-10T17:13:04.439Z,1005.71
2019-04-10T17:14:04.735Z,1005.75
2019-04-10T17:15:03.959Z,1005.76
2019-04-10T17:16:03.500Z,1005.73
2019-04-10T17:17:04.187Z,1005.74
2019-04-10T17:18:03.452Z,1005.75
2019-04-10T17:19:03.560Z,1005.74
2019-04-10T17:20:04.177Z,1005.75
2019-04-10T17:21:04.666Z,1005.78
2019-04-10T17:22:04.682Z,1005.78
2019-04-10T17:23:04.487Z,1005.80
2019-04-10T17:24:03.349Z,1005.84
2019-04-10T17:25:04.099Z,1005.85
2019-04-10T17:26:03.395Z,1005.87
2019-04-10T17:27:04.632Z,1005.85
2019-04-10T17:28:03.827Z,1005.80
2019-04-10T17:29:03.282Z,1005.84
2019-04-10T17:30:03.479Z,1005.87
2019-04-10T17:31:04.367Z,1005.87
2019-04-10T17:32:03.234Z,1005.89
2019-04-10T17:33:03.211Z,1005.92
2019-04-10T17:34:03.199Z,1005.94
2019-04-10T17:35:03.314Z,1005.94
2019-04-10T17:36:04.264Z,1005.95
2019-04-10T17:37:03.178Z,1005.90
2019-04-10T17:38:04.505Z,1005.98
2019-04-10T17:39:03.110Z,1005.92
2019-04-10T17:40:04.120Z,1005.97
2019-04-10T17:41:04.468Z,1006.01
2019-04-10T17:42:04.035Z,1006.01
2019-04-10T17:43:03.125Z,1006.06
2019-04-10T17:44:03.291Z,1006.09
2019-04-10T17:45:03.071Z,1006.09
2019-04-10T17:46:02.988Z,1006.12
2019-04-10T17:47:04.666Z,1006.11
2019-04-10T17:48:03.300Z,1006.14
2019-04-10T17:49:03.237Z,1006.14
2019-04-10T17:50:03.683Z,1006.17
2019-04-10T17:51:03.636Z,1006.18
2019-04-10T17:52:03.892Z,1006.21
2019-04-10T17:53:02.884Z,1006.19
2019-04-10T17:54:04.084Z,1006.20
2019-04-10T17:55:03.162Z,1006.21
2019-04-10T17:56:04.117Z,1006.21
2019-04-10T17:57:02.810Z,1006.23
2019-04-10T17:58:03.279Z,1006.28
2019-04-10T17:59:02.776Z,1006.25
2019-04-10T18:00:02.989Z,1006.27
2019-04-10T18:01:03.841Z,1006.29
2019-04-10T18:02:02.717Z,1006.26
2019-04-10T18:03:03.422Z,1006.33
2019-04-10T18:04:03.642Z,1006.38
2019-04-10T18:05:02.660Z,1006.34
2019-04-10T18:06:03.407Z,1006.37
2019-04-10T18:07:03.783Z,1006.41
2019-04-10T18:08:02.933Z,1006.38
2019-04-10T18:09:02.590Z,1006.45
2019-04-10T18:10:02.574Z,1006.39
2019-04-10T18:11:03.690Z,1006.44
2019-04-10T18:12:03.836Z,1006.46
2019-04-10T18:13:02.993Z,1006.42
2019-04-10T18:14:02.777Z,1006.48
2019-04-10T18:15:02.482Z,1006.45
2019-04-10T18:16:02.494Z,1006.47
2019-04-10T18:17:02.588Z,1006.48
2019-04-10T18:18:03.276Z,1006.48
2019-04-10T18:19:02.411Z,1006.52
2019-04-10T18:20:02.972Z,1006.52
2019-04-10T18:21:02.376Z,1006.53
2019-04-10T18:22:02.678Z,1006.56
2019-04-10T18:23:03.039Z,1006.55
2019-04-10T18:24:02.340Z,1006.64
2019-04-10T18:25:03.392Z,1006.61
2019-04-10T18:26:02.507Z,1006.64
2019-04-10T18:27:02.271Z,1006.61
2019-04-10T18:28:03.278Z,1006.66
2019-04-10T18:29:02.463Z,1006.65
2019-04-10T18:30:02.216Z,1006.69
2019-04-10T18:31:02.828Z,1006.75
2019-04-10T18:32:02.699Z,1006.73
2019-04-10T18:33:03.363Z,1006.71
2019-04-10T18:34:03.207Z,1006.82
2019-04-10T18:35:02.756Z,1006.85
2019-04-10T18:36:02.953Z,1006.87
2019-04-10T18:37:03.342Z,1006.87
2019-04-10T18:38:02.057Z,1006.89
2019-04-10T18:39:02.067Z,1006.84
2019-04-10T18:40:03.228Z,1006.93
2019-04-10T18:41:05.293Z,1006.94
2019-04-10T18:42:02.004Z,1006.97
2019-04-10T18:43:02.231Z,1006.98
2019-04-10T18:44:01.941Z,1007.01
2019-04-10T18:45:01.973Z,1007.03
2019-04-10T18:46:08.679Z,1006.99
2019-04-10T18:47:02.831Z,1007.08
2019-04-10T18:48:02.791Z,1007.09
2019-04-10T18:49:01.850Z,1007.10
2019-04-10T18:50:02.908Z,1007.05
2019-04-10T18:51:01.809Z,1007.15
2019-04-10T18:52:01.793Z,1007.21
2019-04-10T18:53:01.783Z,1007.18
2019-04-10T18:54:01.820Z,1007.21
2019-04-10T18:55:01.751Z,1007.30
2019-04-10T18:56:02.938Z,1007.25
2019-04-10T18:57:02.018Z,1007.28
2019-04-10T18:58:01.678Z,1007.31
2019-04-10T18:59:02.691Z,1007.33
2019-04-10T19:00:01.997Z,1007.34
2019-04-10T19:01:01.618Z,1007.33
2019-04-10T19:02:01.598Z,1007.37
2019-04-10T19:03:01.580Z,1007.33
2019-04-10T19:04:04.157Z,1007.36
2019-04-10T19:05:01.553Z,1007.40
2019-04-10T19:06:02.560Z,1007.46
2019-04-10T19:07:01.860Z,1007.42
2019-04-10T19:08:01.531Z,1007.40
2019-04-10T19:09:10.146Z,1007.48
2019-04-10T19:10:02.189Z,1007.46
2019-04-10T19:11:16.649Z,1007.49
2019-04-10T19:12:02.501Z,1007.45
2019-04-10T19:13:01.506Z,1007.48
2019-04-10T19:14:01.362Z,1007.50
2019-04-10T19:15:01.359Z,1007.56
2019-04-10T19:16:01.432Z,1007.54
2019-04-10T19:17:02.358Z,1007.62
2019-04-10T19:18:01.517Z,1007.58
2019-04-10T19:19:02.083Z,1007.56
2019-04-10T19:20:02.154Z,1007.61
2019-04-10T19:21:01.226Z,1007.59
2019-04-10T19:22:02.079Z,1007.59
2019-04-10T19:23:01.419Z,1007.62
2019-04-10T19:24:01.623Z,1007.62